createdAt,value
2023-04-03T00:00:34.781Z,82.70
2023-04-03T00:01:34.309Z,83.11
2023-04-03T00:02:34.518Z,82.76
2023-04-03T00:03:34.244Z,83.38
2023-04-03T00:04:34.396Z,82.80
2023-04-03T00:05:34.285Z,80.41
2023-04-03T00:06:34.242Z,82.03
2023-04-03T00:07:34.205Z,82.97
2023-04-03T00:08:34.186Z,84.52
2023-04-03T00:09:34.185Z,82.34
2023-04-03T00:10:34.324Z,83.80
2023-04-03T00:11:34.188Z,84.11
2023-04-03T00:12:34.138Z,81.62
2023-04-03T00:13:34.265Z,83.80
2023-04-03T00:14:34.208Z,85.56
2023-04-03T00:15:34.158Z,85.56
2023-04-03T00:16:34.156Z,85.14
2023-04-03T00:17:34.554Z,85.14
2023-04-03T00:18:34.254Z,85.35
2023-04-03T00:19:34.118Z,84.83
2023-04-03T00:20:34.408Z,82.86
2023-04-03T00:21:34.107Z,85.25
2023-04-03T00:22:34.171Z,83.59
2023-04-03T00:23:34.024Z,83.48
2023-04-03T00:24:34.049Z,83.69
2023-04-03T00:25:34.013Z,81.51
2023-04-03T00:26:34.043Z,85.56
2023-04-03T00:27:34.047Z,83.48
2023-04-03T00:28:34.073Z,84.21
2023-04-03T00:29:33.978Z,83.28
2023-04-03T00:30:34.033Z,82.55
2023-04-03T00:31:33.968Z,82.45
2023-04-03T00:32:34.044Z,82.45
2023-04-03T00:33:33.993Z,80.27
2023-04-03T00:34:33.914Z,82.03
2023-04-03T00:35:34.042Z,83.28
2023-04-03T00:36:33.951Z,82.86
2023-04-03T00:37:33.946Z,86.08
2023-04-03T00:38:33.884Z,84.83
2023-04-03T00:39:33.883Z,85.35
2023-04-03T00:40:34.070Z,85.25
2023-04-03T00:41:33.949Z,83.07
2023-04-03T00:42:33.904Z,84.63
2023-04-03T00:43:33.820Z,85.04
2023-04-03T00:44:33.849Z,85.35
2023-04-03T00:45:33.825Z,85.25
2023-04-03T00:46:33.901Z,85.46
2023-04-03T00:47:33.853Z,83.80
2023-04-03T00:48:33.810Z,86.18
2023-04-03T00:49:33.762Z,85.56
2023-04-03T00:50:33.912Z,86.04
2023-04-03T00:51:33.805Z,85.73
2023-04-03T00:52:33.764Z,86.66
2023-04-03T00:53:33.755Z,84.83
2023-04-03T00:54:33.769Z,86.04
2023-04-03T00:55:33.763Z,85.14
2023-04-03T00:56:33.759Z,84.00
2023-04-03T00:57:33.707Z,83.90
2023-04-03T00:58:33.716Z,85.25
2023-04-03T00:59:33.685Z,84.63
2023-04-03T01:00:33.699Z,82.86
2023-04-03T01:01:33.664Z,86.08
2023-04-03T01:02:33.740Z,83.69
2023-04-03T01:03:33.679Z,84.00
2023-04-03T01:04:33.691Z,84.42
2023-04-03T01:05:33.617Z,85.46
2023-04-03T01:06:33.600Z,85.87
2023-04-03T01:07:33.640Z,84.42
2023-04-03T01:08:33.593Z,86.91
2023-04-03T01:09:33.625Z,84.42
2023-04-03T01:10:33.547Z,86.18
2023-04-03T01:11:33.535Z,86.91
2023-04-03T01:12:33.563Z,82.76
2023-04-03T01:13:33.545Z,86.60
2023-04-03T01:14:33.574Z,82.86
2023-04-03T01:15:33.475Z,84.83
2023-04-03T01:16:33.514Z,86.18
2023-04-03T01:17:33.470Z,83.59
2023-04-03T01:18:33.486Z,85.56
2023-04-03T01:19:33.571Z,86.29
2023-04-03T01:20:33.511Z,83.69
2023-04-03T01:21:33.440Z,83.48
2023-04-03T01:22:33.494Z,83.59
2023-04-03T01:23:33.421Z,83.59
2023-04-03T01:24:33.561Z,85.14
2023-04-03T01:25:33.403Z,81.82
2023-04-03T01:26:33.440Z,85.46
2023-04-03T01:27:33.406Z,82.86
2023-04-03T01:28:33.390Z,84.00
2023-04-03T01:29:33.356Z,85.46
2023-04-03T01:30:33.420Z,86.29
2023-04-03T01:31:33.363Z,83.69
2023-04-03T01:32:33.337Z,85.35
2023-04-03T01:33:33.526Z,85.97
2023-04-03T01:34:33.307Z,85.46
2023-04-03T01:35:33.351Z,88.26
2023-04-03T01:36:33.308Z,86.18
2023-04-03T01:37:33.272Z,86.18
2023-04-03T01:38:33.233Z,85.97
2023-04-03T01:39:33.330Z,85.14
2023-04-03T01:40:33.289Z,83.80
2023-04-03T01:41:33.217Z,83.69
2023-04-03T01:42:33.229Z,85.25
2023-04-03T01:43:33.231Z,84.52
2023-04-03T01:44:33.232Z,83.63
2023-04-03T01:45:33.307Z,83.63
2023-04-03T01:46:33.236Z,85.29
2023-04-03T01:47:33.188Z,84.98
2023-04-03T01:48:33.211Z,82.70
2023-04-03T01:49:33.169Z,84.05
2023-04-03T01:50:33.210Z,83.32
2023-04-03T01:51:33.152Z,82.49
2023-04-03T01:52:33.166Z,84.05
2023-04-03T01:53:33.183Z,85.91
2023-04-03T01:54:33.077Z,83.63
2023-04-03T01:55:33.068Z,86.64
2023-04-03T01:56:33.131Z,87.68
2023-04-03T01:57:33.092Z,86.85
2023-04-03T01:58:33.062Z,85.50
2023-04-03T01:59:33.037Z,86.74
2023-04-03T02:00:33.135Z,86.64
2023-04-03T02:01:33.093Z,83.94
2023-04-03T02:02:33.042Z,85.50
2023-04-03T02:03:32.993Z,84.98
2023-04-03T02:04:33.078Z,87.05
2023-04-03T02:05:33.056Z,87.57
2023-04-03T02:06:32.965Z,87.26
2023-04-03T02:07:32.991Z,85.71
2023-04-03T02:08:32.965Z,85.71
2023-04-03T02:09:32.924Z,86.43
2023-04-03T02:10:33.014Z,85.50
2023-04-03T02:11:32.940Z,86.43
2023-04-03T02:12:33.042Z,85.19
2023-04-03T02:13:32.919Z,87.37
2023-04-03T02:14:32.887Z,83.94
2023-04-03T02:15:32.859Z,85.50
2023-04-03T02:16:32.879Z,84.25
2023-04-03T02:17:32.907Z,85.19
2023-04-03T02:18:32.841Z,88.20
2023-04-03T02:19:32.799Z,85.50
2023-04-03T02:20:32.853Z,86.85
2023-04-03T02:21:32.797Z,88.40
2023-04-03T02:22:32.852Z,86.54
2023-04-03T02:23:32.822Z,89.44
2023-04-03T02:24:32.770Z,87.47
2023-04-03T02:25:32.768Z,87.16
2023-04-03T02:26:32.794Z,87.37
2023-04-03T02:27:32.755Z,87.26
2023-04-03T02:28:32.744Z,87.78
2023-04-03T02:29:32.721Z,86.22
2023-04-03T02:30:32.714Z,87.26
2023-04-03T02:31:32.709Z,85.08
2023-04-03T02:32:32.721Z,87.37
2023-04-03T02:33:32.730Z,87.88
2023-04-03T02:34:32.674Z,87.26
2023-04-03T02:35:32.681Z,88.20
2023-04-03T02:36:33.056Z,87.57
2023-04-03T02:37:32.789Z,85.08
2023-04-03T02:38:32.653Z,87.47
2023-04-03T02:39:32.599Z,84.46
2023-04-03T02:40:32.656Z,86.74
2023-04-03T02:41:32.592Z,89.34
2023-04-03T02:42:32.644Z,89.23
2023-04-03T02:43:32.569Z,86.95
2023-04-03T02:44:32.560Z,86.33
2023-04-03T02:45:32.568Z,86.74
2023-04-03T02:46:32.719Z,88.30
2023-04-03T02:47:32.609Z,86.95
2023-04-03T02:48:32.507Z,87.78
2023-04-03T02:49:32.515Z,89.44
2023-04-03T02:50:32.460Z,88.51
2023-04-03T02:51:32.521Z,86.12
2023-04-03T02:52:32.558Z,85.71
2023-04-03T02:53:32.498Z,86.43
2023-04-03T02:54:32.532Z,86.95
2023-04-03T02:55:32.437Z,87.40
2023-04-03T02:56:32.450Z,86.57
2023-04-03T02:57:32.481Z,88.13
2023-04-03T02:58:32.471Z,89.06
2023-04-03T02:59:32.466Z,86.88
2023-04-03T03:00:32.381Z,85.12
2023-04-03T03:01:32.572Z,88.75
2023-04-03T03:02:32.361Z,85.43
2023-04-03T03:03:32.405Z,88.65
2023-04-03T03:04:32.360Z,85.12
2023-04-03T03:05:32.359Z,87.40
2023-04-03T03:06:32.360Z,86.78
2023-04-03T03:07:32.322Z,86.57
2023-04-03T03:08:32.275Z,86.68
2023-04-03T03:09:32.336Z,88.75
2023-04-03T03:10:32.284Z,89.17
2023-04-03T03:11:32.291Z,88.44
2023-04-03T03:12:33.770Z,88.13
2023-04-03T03:13:32.219Z,88.85
2023-04-03T03:14:32.294Z,88.02
2023-04-03T03:15:32.262Z,87.09
2023-04-03T03:16:32.271Z,87.71
2023-04-03T03:17:32.316Z,88.44
2023-04-03T03:18:32.242Z,86.99
2023-04-03T03:19:32.230Z,86.36
2023-04-03T03:20:32.338Z,87.09
2023-04-03T03:21:32.222Z,88.13
2023-04-03T03:22:32.904Z,85.85
2023-04-03T03:23:32.157Z,87.30
2023-04-03T03:24:32.132Z,87.51
2023-04-03T03:25:32.185Z,88.23
2023-04-03T03:26:32.173Z,88.96
2023-04-03T03:27:32.157Z,88.65
2023-04-03T03:28:32.165Z,88.75
2023-04-03T03:29:32.106Z,86.36
2023-04-03T03:30:32.074Z,84.84
2023-04-03T03:31:32.108Z,86.82
2023-04-03T03:32:32.100Z,88.59
2023-04-03T03:33:32.043Z,86.51
2023-04-03T03:34:32.094Z,88.28
2023-04-03T03:35:32.049Z,86.19
2023-04-03T03:36:32.009Z,86.19
2023-04-03T03:37:32.040Z,87.03
2023-04-03T03:38:32.010Z,86.72
2023-04-03T03:39:31.969Z,87.24
2023-04-03T03:40:32.004Z,85.68
2023-04-03T03:41:31.993Z,87.45
2023-04-03T03:42:31.937Z,88.90
2023-04-03T03:43:31.992Z,87.38
2023-04-03T03:44:31.901Z,86.55
2023-04-03T03:45:31.907Z,89.77
2023-04-03T03:46:31.951Z,88.52
2023-04-03T03:47:31.938Z,88.73
2023-04-03T03:48:31.909Z,88.94
2023-04-03T03:49:31.881Z,86.96
2023-04-03T03:50:31.881Z,87.07
2023-04-03T03:51:31.886Z,86.24
2023-04-03T03:52:32.120Z,84.16
2023-04-03T03:53:31.903Z,85.30
2023-04-03T03:54:31.890Z,86.34
2023-04-03T03:55:31.820Z,84.58
2023-04-03T03:56:31.879Z,83.74
2023-04-03T03:57:31.853Z,85.20
2023-04-03T03:58:31.785Z,86.13
2023-04-03T03:59:31.818Z,84.05
2023-04-03T04:00:31.872Z,85.82
2023-04-03T04:01:31.814Z,86.34
2023-04-03T04:02:31.918Z,86.34
2023-04-03T04:03:31.804Z,85.20
2023-04-03T04:04:31.722Z,85.20
2023-04-03T04:05:31.726Z,86.86
2023-04-03T04:06:31.707Z,85.30
2023-04-03T04:07:31.714Z,84.16
2023-04-03T04:08:31.932Z,86.03
2023-04-03T04:09:31.700Z,84.27
2023-04-03T04:10:31.643Z,83.01
2023-04-03T04:11:31.668Z,85.55
2023-04-03T04:12:31.989Z,84.41
2023-04-03T04:13:31.666Z,85.34
2023-04-03T04:14:31.604Z,84.72
2023-04-03T04:15:31.637Z,84.09
2023-04-03T04:16:31.642Z,84.82
2023-04-03T04:17:31.814Z,84.61
2023-04-03T04:18:31.601Z,84.41
2023-04-03T04:19:31.722Z,84.30
2023-04-03T04:20:31.544Z,84.61
2023-04-03T04:21:31.571Z,84.41
2023-04-03T04:22:31.525Z,84.72
2023-04-03T04:23:31.585Z,83.47
2023-04-03T04:24:31.418Z,83.89
2023-04-03T04:25:31.681Z,82.74
2023-04-03T04:26:31.489Z,82.26
2023-04-03T04:27:31.495Z,82.78
2023-04-03T04:28:31.388Z,83.20
2023-04-03T04:29:31.511Z,84.34
2023-04-03T04:30:31.520Z,83.40
2023-04-03T04:31:31.530Z,84.65
2023-04-03T04:32:31.473Z,84.96
2023-04-03T04:33:31.427Z,84.55
2023-04-03T04:34:31.409Z,84.34
2023-04-03T04:35:31.547Z,84.13
2023-04-03T04:36:31.584Z,84.65
2023-04-03T04:37:31.374Z,84.34
2023-04-03T04:38:31.384Z,84.44
2023-04-03T04:39:31.286Z,85.17
2023-04-03T04:40:31.292Z,84.23
2023-04-03T04:41:31.431Z,83.75
2023-04-03T04:42:31.291Z,85.83
2023-04-03T04:43:31.345Z,83.86
2023-04-03T04:44:31.328Z,84.06
2023-04-03T04:45:31.258Z,84.80
2023-04-03T04:46:31.365Z,84.90
2023-04-03T04:47:31.280Z,85.11
2023-04-03T04:48:32.733Z,84.17
2023-04-03T04:49:31.180Z,83.96
2023-04-03T04:50:31.191Z,85.73
2023-04-03T04:51:41.038Z,85.11
2023-04-03T04:52:31.144Z,85.31
2023-04-03T04:53:31.163Z,84.27
2023-04-03T04:54:31.118Z,83.34
2023-04-03T04:55:31.170Z,85.83
2023-04-03T04:56:31.238Z,85.63
2023-04-03T04:57:31.200Z,84.69
2023-04-03T04:58:31.084Z,84.69
2023-04-03T04:59:31.092Z,84.90
2023-04-03T05:00:31.157Z,85.42
2023-04-03T05:01:31.281Z,86.46
2023-04-03T05:02:31.123Z,86.67
2023-04-03T05:03:31.186Z,86.77
2023-04-03T05:04:31.103Z,84.06
2023-04-03T05:05:31.035Z,84.17
2023-04-03T05:06:31.068Z,84.69
2023-04-03T05:07:31.123Z,86.98
2023-04-03T05:08:30.983Z,86.46
2023-04-03T05:09:31.108Z,86.15
2023-04-03T05:10:31.022Z,86.88
2023-04-03T05:11:30.997Z,86.57
2023-04-03T05:12:30.933Z,85.00
2023-04-03T05:13:30.921Z,83.54
2023-04-03T05:14:30.953Z,86.67
2023-04-03T05:15:31.027Z,86.57
2023-04-03T05:16:30.927Z,87.92
2023-04-03T05:17:30.940Z,86.88
2023-04-03T05:18:30.873Z,84.06
2023-04-03T05:19:30.851Z,88.43
2023-04-03T05:20:30.850Z,87.60
2023-04-03T05:21:30.867Z,86.88
2023-04-03T05:22:30.824Z,84.38
2023-04-03T05:23:30.827Z,85.52
2023-04-03T05:24:30.796Z,85.52
2023-04-03T05:25:30.936Z,85.35
2023-04-03T05:26:30.873Z,87.60
2023-04-03T05:27:30.899Z,84.69
2023-04-03T05:28:30.790Z,84.31
2023-04-03T05:29:30.829Z,85.21
2023-04-03T05:30:30.722Z,84.94
2023-04-03T05:31:30.843Z,86.50
2023-04-03T05:32:30.793Z,86.77
2023-04-03T05:33:30.698Z,83.96
2023-04-03T05:34:30.690Z,88.64
2023-04-03T05:35:30.673Z,86.67
2023-04-03T05:36:31.352Z,86.25
2023-04-03T05:37:30.838Z,85.52
2023-04-03T05:38:30.680Z,88.64
2023-04-03T05:39:30.628Z,86.25
2023-04-03T05:40:30.678Z,85.73
2023-04-03T05:41:30.599Z,85.21
2023-04-03T05:42:30.982Z,86.67
2023-04-03T05:43:30.614Z,87.15
2023-04-03T05:44:30.690Z,85.28
2023-04-03T05:45:30.637Z,84.65
2023-04-03T05:46:30.672Z,85.90
2023-04-03T05:47:30.849Z,85.17
2023-04-03T05:48:30.753Z,84.75
2023-04-03T05:49:30.820Z,84.55
2023-04-03T05:50:30.562Z,85.38
2023-04-03T05:51:30.548Z,88.40
2023-04-03T05:52:30.494Z,87.25
2023-04-03T05:53:30.555Z,86.21
2023-04-03T05:54:30.495Z,84.03
2023-04-03T05:55:30.527Z,87.35
2023-04-03T05:56:30.532Z,84.55
2023-04-03T05:57:30.586Z,83.92
2023-04-03T05:58:30.592Z,84.13
2023-04-03T05:59:30.464Z,82.36
2023-04-03T06:00:30.543Z,81.32
2023-04-03T06:01:30.416Z,82.78
2023-04-03T06:02:30.428Z,83.40
2023-04-03T06:03:30.473Z,84.23
2023-04-03T06:04:30.513Z,84.86
2023-04-03T06:05:30.426Z,86.32
2023-04-03T06:06:30.503Z,83.51
2023-04-03T06:07:30.364Z,84.34
2023-04-03T06:08:30.356Z,84.55
2023-04-03T06:09:30.339Z,82.68
2023-04-03T06:10:30.303Z,82.89
2023-04-03T06:11:30.412Z,83.72
2023-04-03T06:12:30.601Z,84.44
2023-04-03T06:13:30.303Z,85.90
2023-04-03T06:14:30.380Z,84.51
2023-04-03T06:15:30.285Z,84.41
2023-04-03T06:16:30.311Z,83.68
2023-04-03T06:17:30.322Z,84.41
2023-04-03T06:18:30.326Z,84.82
2023-04-03T06:19:30.237Z,83.58
2023-04-03T06:20:30.196Z,83.47
2023-04-03T06:21:30.203Z,85.13
2023-04-03T06:22:30.225Z,82.81
2023-04-03T06:23:30.188Z,83.95
2023-04-03T06:24:30.242Z,84.05
2023-04-03T06:25:30.133Z,83.01
2023-04-03T06:26:30.153Z,82.70
2023-04-03T06:27:30.162Z,81.77
2023-04-03T06:28:30.140Z,83.12
2023-04-03T06:29:30.153Z,83.53
2023-04-03T06:30:30.170Z,82.18
2023-04-03T06:31:30.271Z,82.91
2023-04-03T06:32:30.097Z,83.22
2023-04-03T06:33:30.069Z,84.05
2023-04-03T06:34:30.022Z,83.22
2023-04-03T06:35:30.156Z,82.60
2023-04-03T06:36:30.221Z,81.87
2023-04-03T06:37:30.555Z,82.18
2023-04-03T06:38:30.025Z,80.94
2023-04-03T06:39:30.055Z,80.59
2023-04-03T06:40:29.994Z,83.50
2023-04-03T06:41:30.009Z,83.39
2023-04-03T06:42:29.953Z,83.60
2023-04-03T06:43:29.974Z,84.50
2023-04-03T06:44:30.025Z,81.07
2023-04-03T06:45:29.949Z,82.11
2023-04-03T07:42:48.155Z,83.04
2023-04-03T07:42:53.545Z,72.81
2023-04-03T07:43:53.912Z,70.43
2023-04-03T07:44:53.543Z,71.23
2023-04-03T07:45:53.600Z,71.54
2023-04-03T07:46:53.613Z,70.72
2023-04-03T07:47:53.701Z,70.43
2023-04-03T07:48:53.502Z,70.85
2023-04-03T07:49:53.507Z,71.98
2023-04-03T07:50:53.555Z,70.72
2023-04-03T07:51:53.578Z,69.58
2023-04-03T07:52:53.700Z,70.09
2023-04-03T07:53:53.459Z,70.57
2023-04-03T07:54:53.549Z,69.03
2023-04-03T07:55:53.422Z,69.03
2023-04-03T07:56:53.660Z,67.27
2023-04-03T07:57:53.540Z,67.79
2023-04-03T07:58:53.395Z,68.72
2023-04-03T07:59:53.391Z,68.00
2023-04-03T08:00:53.463Z,67.38
2023-04-03T08:01:53.376Z,67.17
2023-04-03T08:02:53.547Z,68.41
2023-04-03T08:03:53.479Z,67.48
2023-04-03T08:04:53.796Z,67.03
2023-04-03T08:05:53.318Z,66.11
2023-04-03T08:06:53.306Z,67.45
2023-04-03T08:07:53.302Z,67.66
2023-04-03T08:08:53.325Z,67.00
2023-04-03T08:09:53.402Z,65.46
2023-04-03T08:10:53.269Z,65.56
2023-04-03T08:11:53.377Z,64.64
2023-04-03T08:12:53.268Z,65.46
2023-04-03T08:13:53.684Z,65.46
2023-04-03T08:14:53.275Z,67.73
2023-04-03T08:15:53.265Z,66.05
2023-04-03T08:16:53.313Z,66.77
2023-04-03T08:17:53.195Z,65.33
2023-04-03T08:18:53.187Z,65.09
2023-04-03T08:19:53.195Z,65.40
2023-04-03T08:20:53.153Z,64.65
2023-04-03T08:21:53.173Z,63.69
2023-04-03T08:22:53.181Z,65.03
2023-04-03T08:23:53.216Z,64.31
2023-04-03T08:24:59.475Z,63.97
2023-04-03T08:25:53.240Z,63.35
2023-04-03T08:26:53.154Z,60.86
2023-04-03T08:27:53.094Z,61.17
2023-04-03T08:28:53.120Z,61.47
2023-04-03T08:29:53.226Z,62.09
2023-04-03T08:30:53.072Z,62.19
2023-04-03T08:31:53.073Z,62.99
2023-04-03T08:32:53.069Z,60.55
2023-04-03T08:33:53.098Z,62.92
2023-04-03T08:34:53.055Z,61.44
2023-04-03T08:35:53.161Z,61.86
2023-04-03T08:36:52.993Z,63.57
2023-04-03T08:37:53.059Z,62.83
2023-04-03T08:38:53.005Z,61.39
2023-04-03T08:39:52.990Z,59.95
2023-04-03T08:40:53.011Z,60.95
2023-04-03T08:41:53.058Z,60.33
2023-04-03T08:42:53.328Z,60.44
2023-04-03T08:43:52.916Z,59.69
2023-04-03T08:44:52.972Z,58.18
2023-04-03T08:45:52.960Z,58.69
2023-04-03T08:46:52.985Z,57.05
2023-04-03T08:47:53.962Z,57.26
2023-04-03T08:48:52.971Z,57.77
2023-04-03T08:49:52.968Z,57.77
2023-04-03T08:50:53.190Z,58.59
2023-04-03T08:51:52.812Z,58.51
2023-04-03T08:52:52.821Z,57.90
2023-04-03T08:53:52.882Z,57.79
2023-04-03T08:54:52.814Z,58.31
2023-04-03T08:55:52.853Z,57.70
2023-04-03T08:56:52.900Z,59.00
2023-04-03T08:57:52.802Z,57.39
2023-04-03T08:58:52.785Z,59.54
2023-04-03T08:59:52.812Z,58.21
2023-04-03T09:00:52.750Z,59.03
2023-04-03T09:01:52.765Z,58.51
2023-04-03T09:02:53.174Z,57.87
2023-04-03T09:03:52.822Z,57.56
2023-04-03T09:04:52.778Z,57.67
2023-04-03T09:05:52.717Z,57.15
2023-04-03T09:06:52.975Z,56.51
2023-04-03T09:07:52.697Z,55.38
2023-04-03T09:08:52.708Z,57.95
2023-04-03T09:09:52.707Z,56.71
2023-04-03T09:11:00.748Z,55.62
2023-04-03T09:11:52.656Z,55.08
2023-04-03T09:13:02.104Z,56.54
2023-04-03T09:14:00.599Z,56.30
2023-04-03T09:14:52.569Z,56.79
2023-04-03T09:15:52.593Z,55.36
2023-04-03T09:16:52.550Z,55.74
2023-04-03T09:17:52.531Z,55.74
2023-04-03T09:18:52.568Z,53.82
2023-04-03T09:19:52.532Z,55.98
2023-04-03T09:20:52.562Z,56.49
2023-04-03T09:21:52.547Z,56.79
2023-04-03T09:22:53.248Z,55.33
2023-04-03T09:23:52.487Z,55.00
2023-04-03T09:24:52.481Z,53.67
2023-04-03T09:25:52.459Z,53.67
2023-04-03T09:26:52.518Z,53.64
2023-04-03T09:27:52.457Z,54.95
2023-04-03T09:28:52.521Z,54.23
2023-04-03T09:29:52.591Z,54.21
2023-04-03T09:30:52.402Z,53.28
2023-04-03T09:31:52.391Z,52.16
2023-04-03T09:32:52.519Z,53.49
2023-04-03T09:33:52.356Z,52.26
2023-04-03T09:34:52.396Z,52.19
2023-04-03T09:35:52.391Z,52.21
2023-04-03T09:36:52.382Z,54.79
2023-04-03T09:37:52.337Z,54.36
2023-04-03T09:38:52.300Z,53.03
2023-04-03T09:39:52.313Z,54.54
2023-04-03T09:40:52.497Z,53.21
2023-04-03T09:41:52.245Z,53.49
2023-04-03T09:43:00.765Z,52.19
2023-04-03T09:43:52.258Z,53.54
2023-04-03T09:44:53.226Z,54.08
2023-04-03T09:45:52.233Z,53.90
2023-04-03T09:46:52.338Z,55.36
2023-04-03T09:47:52.205Z,55.36
2023-04-03T09:48:55.026Z,54.23
2023-04-03T09:49:52.236Z,55.02
2023-04-03T09:50:52.199Z,55.33
2023-04-03T09:51:52.191Z,54.74
2023-04-03T09:52:52.135Z,54.13
2023-04-03T09:53:52.149Z,57.00
2023-04-03T09:54:52.131Z,56.26
2023-04-03T09:55:52.151Z,57.82
2023-04-03T09:56:52.228Z,56.30
2023-04-03T09:57:53.578Z,58.15
2023-04-03T09:58:52.123Z,55.82
2023-04-03T09:59:52.076Z,58.51
2023-04-03T10:00:52.116Z,58.83
2023-04-03T10:01:52.201Z,58.31
2023-04-03T10:02:52.118Z,57.77
2023-04-03T10:03:52.021Z,58.05
2023-04-03T10:05:02.530Z,57.33
2023-04-03T10:05:52.007Z,57.95
2023-04-03T10:06:52.008Z,55.41
2023-04-03T10:08:01.734Z,53.67
2023-04-03T10:08:51.955Z,55.58
2023-04-03T10:09:52.024Z,54.05
2023-04-03T10:10:51.955Z,53.31
2023-04-03T10:11:51.971Z,54.36
2023-04-03T10:12:51.960Z,54.38
2023-04-03T10:13:51.977Z,55.15
2023-04-03T10:14:51.922Z,54.25
2023-04-03T10:15:51.884Z,55.18
2023-04-03T10:16:51.923Z,56.35
2023-04-03T10:17:51.942Z,55.13
2023-04-03T10:18:51.872Z,52.93
2023-04-03T10:19:51.846Z,54.95
2023-04-03T10:20:51.868Z,53.75
2023-04-03T10:21:51.811Z,53.98
2023-04-03T10:22:51.814Z,52.32
2023-04-03T10:23:51.792Z,54.26
2023-04-03T10:24:51.833Z,52.42
2023-04-03T10:25:51.804Z,50.86
2023-04-03T10:26:51.932Z,51.55
2023-04-03T10:27:51.844Z,51.45
2023-04-03T10:28:51.757Z,51.12
2023-04-03T10:29:51.766Z,50.89
2023-04-03T10:30:51.769Z,50.46
2023-04-03T10:31:51.730Z,50.18
2023-04-03T10:32:51.733Z,52.14
2023-04-03T10:33:51.784Z,50.92
2023-04-03T10:35:02.675Z,51.35
2023-04-03T10:35:51.762Z,52.01
2023-04-03T10:36:51.706Z,51.89
2023-04-03T10:37:51.698Z,48.75
2023-04-03T10:38:51.673Z,48.65
2023-04-03T10:39:51.658Z,50.56
2023-04-03T10:40:51.643Z,48.73
2023-04-03T10:41:54.170Z,49.77
2023-04-03T10:42:51.616Z,49.16
2023-04-03T10:43:51.620Z,49.04
2023-04-03T10:44:51.598Z,48.22
2023-04-03T10:45:51.585Z,49.32
2023-04-03T10:46:51.549Z,48.30
2023-04-03T10:47:51.603Z,47.79
2023-04-03T10:48:51.587Z,48.99
2023-04-03T10:49:59.364Z,48.30
2023-04-03T10:50:51.551Z,48.85
2023-04-03T10:51:51.505Z,49.87
2023-04-03T10:52:51.545Z,49.65
2023-04-03T10:53:51.521Z,48.42
2023-04-03T10:54:51.705Z,49.95
2023-04-03T10:55:51.597Z,48.60
2023-04-03T10:57:01.018Z,47.49
2023-04-03T10:57:51.506Z,48.71
2023-04-03T10:58:51.439Z,48.71
2023-04-03T10:59:51.512Z,46.47
2023-04-03T11:00:51.443Z,47.16
2023-04-03T11:01:51.442Z,48.25
2023-04-03T11:02:51.472Z,47.82
2023-04-03T11:03:51.472Z,46.68
2023-04-03T11:04:51.503Z,45.54
2023-04-03T11:05:51.409Z,46.53
2023-04-03T11:06:51.374Z,45.11
2023-04-03T11:07:51.357Z,45.99
2023-04-03T11:08:51.328Z,46.22
2023-04-03T11:09:51.380Z,47.36
2023-04-03T11:10:51.342Z,46.28
2023-04-03T11:11:51.304Z,47.89
2023-04-03T11:12:51.297Z,47.77
2023-04-03T11:13:51.283Z,45.53
2023-04-03T11:14:51.264Z,46.03
2023-04-03T11:15:51.294Z,46.42
2023-04-03T11:16:54.141Z,43.98
2023-04-03T11:17:51.300Z,44.04
2023-04-03T11:18:51.245Z,46.07
2023-04-03T11:19:51.220Z,45.75
2023-04-03T11:20:51.207Z,45.15
2023-04-03T11:21:51.317Z,44.53
2023-04-03T11:22:51.201Z,43.20
2023-04-03T11:23:51.186Z,44.71
2023-04-03T11:24:51.191Z,42.88
2023-04-03T11:25:51.160Z,43.69
2023-04-03T11:26:51.169Z,42.88
2023-04-03T11:27:51.129Z,42.35
2023-04-03T11:28:51.166Z,42.96
2023-04-03T11:29:51.119Z,40.36
2023-04-03T11:30:52.971Z,42.04
2023-04-03T11:31:51.135Z,43.69
2023-04-03T11:32:51.166Z,42.68
2023-04-03T11:33:51.080Z,44.81
2023-04-03T11:34:51.084Z,43.06
2023-04-03T11:35:51.124Z,42.77
2023-04-03T11:36:51.073Z,44.20
2023-04-03T11:37:51.022Z,44.61
2023-04-03T11:38:51.032Z,43.90
2023-04-03T11:39:51.029Z,45.22
2023-04-03T11:40:51.086Z,43.16
2023-04-03T11:41:53.372Z,42.55
2023-04-03T11:42:51.086Z,42.35
2023-04-03T11:43:51.012Z,44.31
2023-04-03T11:44:50.965Z,42.90
2023-04-03T11:45:50.982Z,42.61
2023-04-03T11:46:50.986Z,42.82
2023-04-03T11:47:50.987Z,43.23
2023-04-03T11:48:50.923Z,42.77
2023-04-03T11:49:50.919Z,43.08
2023-04-03T11:50:50.927Z,43.77
2023-04-03T11:51:50.873Z,44.36
2023-04-03T11:52:50.884Z,43.02
2023-04-03T11:53:50.871Z,43.63
2023-04-03T11:54:50.859Z,44.83
2023-04-03T11:55:50.872Z,42.68
2023-04-03T11:56:50.848Z,42.25
2023-04-03T11:57:50.881Z,41.01
2023-04-03T11:58:50.819Z,40.83
2023-04-03T11:59:50.802Z,41.44
2023-04-03T12:00:50.794Z,40.42
2023-04-03T12:01:50.821Z,42.45
2023-04-03T12:02:54.338Z,43.87
2023-04-03T12:03:50.861Z,44.06
2023-04-03T12:04:50.752Z,42.43
2023-04-03T12:05:50.737Z,42.43
2023-04-03T12:06:50.782Z,43.35
2023-04-03T12:07:50.714Z,43.23
2023-04-03T12:08:50.730Z,42.00
2023-04-03T12:09:50.688Z,43.41
2023-04-03T12:10:50.683Z,43.35
2023-04-03T12:11:50.689Z,42.00
2023-04-03T12:12:50.696Z,40.77
2023-04-03T12:13:50.664Z,39.23
2023-04-03T12:14:50.713Z,41.16
2023-04-03T12:15:50.663Z,42.29
2023-04-03T12:16:50.657Z,38.95
2023-04-03T12:17:50.721Z,39.78
2023-04-03T12:18:50.620Z,41.48
2023-04-03T12:19:50.586Z,41.05
2023-04-03T12:20:50.600Z,40.55
2023-04-03T12:21:50.585Z,40.22
2023-04-03T12:22:50.576Z,38.30
2023-04-03T12:23:50.562Z,39.92
2023-04-03T12:24:50.564Z,41.44
2023-04-03T12:25:50.564Z,39.39
2023-04-03T12:26:50.571Z,38.99
2023-04-03T12:27:50.525Z,39.68
2023-04-03T12:28:50.561Z,38.97
2023-04-03T12:29:50.505Z,39.11
2023-04-03T12:30:50.530Z,41.28
2023-04-03T12:31:50.485Z,40.48
2023-04-03T12:32:54.066Z,41.30
2023-04-03T12:33:50.500Z,42.19
2023-04-03T12:34:50.509Z,41.44
2023-04-03T12:35:50.512Z,40.11
2023-04-03T12:36:50.429Z,38.08
2023-04-03T12:37:50.417Z,39.90
2023-04-03T12:38:50.405Z,38.12
2023-04-03T12:39:50.389Z,39.23
2023-04-03T12:40:50.395Z,39.31
2023-04-03T12:41:50.397Z,40.14
2023-04-03T12:42:50.385Z,42.80
2023-04-03T12:43:50.406Z,41.05
2023-04-03T12:44:50.397Z,38.68
2023-04-03T12:45:50.417Z,35.72
2023-04-03T12:46:50.560Z,36.91
2023-04-03T12:47:50.364Z,39.61
2023-04-03T12:48:50.297Z,34.52
2023-04-03T12:49:51.562Z,34.70
2023-04-03T12:50:50.288Z,35.78
2023-04-03T12:51:50.300Z,35.55
2023-04-03T12:52:50.326Z,34.32
2023-04-03T12:53:50.324Z,35.53
2023-04-03T12:54:50.288Z,33.68
2023-04-03T12:55:50.276Z,34.27
2023-04-03T12:56:50.309Z,34.86
2023-04-03T12:57:50.232Z,34.30
2023-04-03T12:58:50.237Z,38.30
2023-04-03T12:59:50.256Z,34.27
2023-04-03T13:00:50.237Z,37.76
2023-04-03T13:01:50.233Z,33.55
2023-04-03T13:02:50.226Z,35.06
2023-04-03T13:03:50.339Z,34.34
2023-04-03T13:04:50.176Z,36.96
2023-04-03T13:05:50.143Z,39.14
2023-04-03T13:06:50.126Z,34.49
2023-04-03T13:07:50.147Z,35.98
2023-04-03T13:08:50.103Z,35.05
2023-04-03T13:09:50.112Z,32.32
2023-04-03T13:10:50.095Z,33.52
2023-04-03T13:11:50.101Z,35.53
2023-04-03T13:12:50.075Z,32.10
2023-04-03T13:13:50.060Z,34.02
2023-04-03T13:14:50.072Z,33.62
2023-04-03T13:15:50.210Z,31.65
2023-04-03T13:16:50.053Z,33.47
2023-04-03T13:17:50.071Z,33.47
2023-04-03T13:18:50.022Z,33.18
2023-04-03T13:19:50.116Z,32.50
2023-04-03T13:20:50.006Z,36.35
2023-04-03T13:21:50.021Z,37.83
2023-04-03T13:22:49.970Z,37.51
2023-04-03T13:23:51.506Z,37.08
2023-04-03T13:24:49.947Z,38.18
2023-04-03T13:25:49.986Z,34.24
2023-04-03T13:26:50.025Z,35.46
2023-04-03T13:28:51.163Z,35.45
2023-04-03T13:29:49.885Z,36.76
2023-04-03T13:30:49.906Z,35.23
2023-04-03T13:31:49.941Z,36.94
2023-04-03T13:32:49.898Z,34.24
2023-04-03T13:33:49.852Z,35.03
2023-04-03T13:34:49.855Z,37.51
2023-04-03T13:35:49.865Z,35.18
2023-04-03T13:36:49.807Z,35.77
2023-04-03T13:37:49.811Z,31.43
2023-04-03T13:38:49.896Z,34.94
2023-04-03T13:39:49.790Z,37.05
2023-04-03T13:40:50.062Z,38.26
2023-04-03T13:41:49.795Z,36.75
2023-04-03T13:42:49.790Z,34.94
2023-04-03T13:43:50.738Z,34.71
2023-04-03T13:44:49.734Z,35.93
2023-04-03T13:45:49.756Z,32.93
2023-04-03T13:46:49.720Z,39.73
2023-04-03T13:47:49.846Z,36.71
2023-04-03T13:48:49.698Z,33.90